sensor_id;sensor_type;location;lat;lon;timestamp;P1;durP1;ratioP1;P2;durP2;ratioP2
31442;SDS011;18065;55.876;9.830;2023-08-01T00:00:14;3.25;;;1.50;;
31442;SDS011;18065;55.876;9.830;2023-08-01T00:02:42;1.95;;;1.42;;
31442;SDS011;18065;55.876;9.830;2023-08-01T00:05:11;1.48;;;0.98;;
31442;SDS011;18065;55.876;9.830;2023-08-01T00:07:40;3.40;;;1.40;;
31442;SDS011;18065;55.876;9.830;2023-08-01T00:10:09;2.35;;;1.27;;
31442;SDS011;18065;55.876;9.830;2023-08-01T00:12:38;1.65;;;1.25;;
31442;SDS011;18065;55.876;9.830;2023-08-01T00:15:10;1.35;;;1.00;;
31442;SDS011;18065;55.876;9.830;2023-08-01T00:17:41;1.70;;;1.10;;
31442;SDS011;18065;55.876;9.830;2023-08-01T00:20:10;2.25;;;1.20;;
31442;SDS011;18065;55.876;9.830;2023-08-01T00:22:39;2.20;;;1.23;;
31442;SDS011;18065;55.876;9.830;2023-08-01T00:25:08;2.28;;;1.17;;
31442;SDS011;18065;55.876;9.830;2023-08-01T00:27:44;1.42;;;1.00;;
31442;SDS011;18065;55.876;9.830;2023-08-01T00:30:16;2.47;;;1.10;;
31442;SDS011;18065;55.876;9.830;2023-08-01T00:32:45;1.65;;;1.10;;
31442;SDS011;18065;55.876;9.830;2023-08-01T00:35:13;1.73;;;0.85;;
31442;SDS011;18065;55.876;9.830;2023-08-01T00:37:42;1.52;;;0.90;;
31442;SDS011;18065;55.876;9.830;2023-08-01T00:40:11;1.42;;;1.00;;
31442;SDS011;18065;55.876;9.830;2023-08-01T00:42:41;1.02;;;0.70;;
31442;SDS011;18065;55.876;9.830;2023-08-01T00:45:16;0.85;;;0.82;;
31442;SDS011;18065;55.876;9.830;2023-08-01T00:47:45;2.75;;;1.10;;
31442;SDS011;18065;55.876;9.830;2023-08-01T00:50:17;1.83;;;0.85;;
31442;SDS011;18065;55.876;9.830;2023-08-01T00:52:47;1.50;;;1.05;;
31442;SDS011;18065;55.876;9.830;2023-08-01T00:55:17;1.92;;;1.00;;
31442;SDS011;18065;55.876;9.830;2023-08-01T00:57:46;1.30;;;1.10;;
31442;SDS011;18065;55.876;9.830;2023-08-01T01:00:18;2.25;;;0.90;;
31442;SDS011;18065;55.876;9.830;2023-08-01T01:02:47;0.90;;;0.70;;
31442;SDS011;18065;55.876;9.830;2023-08-01T01:05:15;1.50;;;0.80;;
31442;SDS011;18065;55.876;9.830;2023-08-01T01:07:44;2.03;;;1.13;;
31442;SDS011;18065;55.876;9.830;2023-08-01T01:10:15;2.10;;;1.02;;
31442;SDS011;18065;55.876;9.830;2023-08-01T01:12:43;0.80;;;0.80;;
31442;SDS011;18065;55.876;9.830;2023-08-01T01:15:12;1.40;;;0.95;;
31442;SDS011;18065;55.876;9.830;2023-08-01T01:17:44;1.15;;;0.60;;
31442;SDS011;18065;55.876;9.830;2023-08-01T01:20:12;1.33;;;0.80;;
31442;SDS011;18065;55.876;9.830;2023-08-01T01:22:44;1.15;;;0.90;;
31442;SDS011;18065;55.876;9.830;2023-08-01T01:25:16;2.03;;;0.77;;
31442;SDS011;18065;55.876;9.830;2023-08-01T01:27:45;2.78;;;1.00;;
31442;SDS011;18065;55.876;9.830;2023-08-01T01:30:15;1.63;;;0.70;;
31442;SDS011;18065;55.876;9.830;2023-08-01T01:32:45;1.00;;;0.65;;
31442;SDS011;18065;55.876;9.830;2023-08-01T01:35:14;1.15;;;1.02;;
31442;SDS011;18065;55.876;9.830;2023-08-01T01:37:46;1.55;;;0.90;;
31442;SDS011;18065;55.876;9.830;2023-08-01T01:40:17;0.98;;;0.73;;
31442;SDS011;18065;55.876;9.830;2023-08-01T01:42:46;0.98;;;0.75;;
31442;SDS011;18065;55.876;9.830;2023-08-01T01:45:15;1.63;;;0.68;;
31442;SDS011;18065;55.876;9.830;2023-08-01T01:47:44;1.30;;;0.90;;
31442;SDS011;18065;55.876;9.830;2023-08-01T01:50:13;1.35;;;0.85;;
31442;SDS011;18065;55.876;9.830;2023-08-01T01:52:43;1.15;;;0.77;;
31442;SDS011;18065;55.876;9.830;2023-08-01T01:55:14;1.50;;;1.00;;
31442;SDS011;18065;55.876;9.830;2023-08-01T01:57:43;0.75;;;0.68;;
31442;SDS011;18065;55.876;9.830;2023-08-01T02:00:12;1.42;;;0.77;;
31442;SDS011;18065;55.876;9.830;2023-08-01T02:02:42;2.22;;;0.80;;
31442;SDS011;18065;55.876;9.830;2023-08-01T02:05:10;1.02;;;0.70;;
31442;SDS011;18065;55.876;9.830;2023-08-01T02:07:39;1.77;;;0.73;;
31442;SDS011;18065;55.876;9.830;2023-08-01T02:10:11;1.60;;;0.88;;
31442;SDS011;18065;55.876;9.830;2023-08-01T02:12:39;1.73;;;0.77;;
31442;SDS011;18065;55.876;9.830;2023-08-01T02:15:09;0.70;;;0.70;;
31442;SDS011;18065;55.876;9.830;2023-08-01T02:17:38;1.92;;;0.75;;
31442;SDS011;18065;55.876;9.830;2023-08-01T02:20:08;1.70;;;0.65;;
31442;SDS011;18065;55.876;9.830;2023-08-01T02:22:37;1.98;;;0.80;;
31442;SDS011;18065;55.876;9.830;2023-08-01T02:25:06;0.85;;;0.70;;
31442;SDS011;18065;55.876;9.830;2023-08-01T02:27:39;1.77;;;0.70;;
31442;SDS011;18065;55.876;9.830;2023-08-01T02:30:08;2.28;;;0.82;;
31442;SDS011;18065;55.876;9.830;2023-08-01T02:32:37;1.13;;;0.73;;
31442;SDS011;18065;55.876;9.830;2023-08-01T02:35:07;1.35;;;0.52;;
31442;SDS011;18065;55.876;9.830;2023-08-01T02:37:36;0.98;;;0.57;;
31442;SDS011;18065;55.876;9.830;2023-08-01T02:40:08;1.35;;;0.65;;
31442;SDS011;18065;55.876;9.830;2023-08-01T02:42:40;1.02;;;0.60;;
31442;SDS011;18065;55.876;9.830;2023-08-01T02:45:09;0.82;;;0.68;;
31442;SDS011;18065;55.876;9.830;2023-08-01T02:47:40;0.90;;;0.70;;
31442;SDS011;18065;55.876;9.830;2023-08-01T02:50:09;0.60;;;0.60;;
31442;SDS011;18065;55.876;9.830;2023-08-01T02:52:38;1.35;;;0.70;;
31442;SDS011;18065;55.876;9.830;2023-08-01T02:55:07;1.45;;;0.65;;
31442;SDS011;18065;55.876;9.830;2023-08-01T02:57:36;1.08;;;0.68;;
31442;SDS011;18065;55.876;9.830;2023-08-01T03:00:08;1.15;;;0.50;;
31442;SDS011;18065;55.876;9.830;2023-08-01T03:02:39;0.82;;;0.50;;
31442;SDS011;18065;55.876;9.830;2023-08-01T03:05:08;1.65;;;1.08;;
31442;SDS011;18065;55.876;9.830;2023-08-01T03:07:37;1.27;;;0.63;;
31442;SDS011;18065;55.876;9.830;2023-08-01T03:10:06;1.15;;;0.50;;
31442;SDS011;18065;55.876;9.830;2023-08-01T03:12:36;1.48;;;0.70;;
31442;SDS011;18065;55.876;9.830;2023-08-01T03:15:08;0.77;;;0.60;;
31442;SDS011;18065;55.876;9.830;2023-08-01T03:17:38;0.73;;;0.53;;
31442;SDS011;18065;55.876;9.830;2023-08-01T03:20:07;0.52;;;0.43;;
31442;SDS011;18065;55.876;9.830;2023-08-01T03:22:37;1.27;;;0.50;;
31442;SDS011;18065;55.876;9.830;2023-08-01T03:25:07;0.70;;;0.40;;
31442;SDS011;18065;55.876;9.830;2023-08-01T03:27:36;1.50;;;0.50;;
31442;SDS011;18065;55.876;9.830;2023-08-01T03:30:05;0.70;;;0.50;;
31442;SDS011;18065;55.876;9.830;2023-08-01T03:32:39;1.38;;;0.70;;
31442;SDS011;18065;55.876;9.830;2023-08-01T03:35:08;1.55;;;0.70;;
31442;SDS011;18065;55.876;9.830;2023-08-01T03:37:39;1.35;;;0.60;;
31442;SDS011;18065;55.876;9.830;2023-08-01T03:40:08;1.92;;;0.60;;
31442;SDS011;18065;55.876;9.830;2023-08-01T03:42:37;0.57;;;0.50;;
31442;SDS011;18065;55.876;9.830;2023-08-01T03:45:09;0.85;;;0.65;;
31442;SDS011;18065;55.876;9.830;2023-08-01T03:47:38;2.38;;;0.50;;
31442;SDS011;18065;55.876;9.830;2023-08-01T03:50:07;1.10;;;0.60;;
31442;SDS011;18065;55.876;9.830;2023-08-01T03:52:39;1.05;;;0.60;;
31442;SDS011;18065;55.876;9.830;2023-08-01T03:55:08;1.25;;;0.70;;
31442;SDS011;18065;55.876;9.830;2023-08-01T03:57:36;0.80;;;0.60;;
31442;SDS011;18065;55.876;9.830;2023-08-01T04:00:06;1.63;;;0.68;;
31442;SDS011;18065;55.876;9.830;2023-08-01T04:02:39;0.52;;;0.45;;
31442;SDS011;18065;55.876;9.830;2023-08-01T04:05:09;0.95;;;0.57;;
31442;SDS011;18065;55.876;9.830;2023-08-01T04:07:38;0.82;;;0.60;;
31442;SDS011;18065;55.876;9.830;2023-08-01T04:10:07;0.75;;;0.50;;
31442;SDS011;18065;55.876;9.830;2023-08-01T04:12:36;2.40;;;0.60;;
31442;SDS011;18065;55.876;9.830;2023-08-01T04:15:05;0.63;;;0.55;;
31442;SDS011;18065;55.876;9.830;2023-08-01T04:17:37;0.70;;;0.57;;
31442;SDS011;18065;55.876;9.830;2023-08-01T04:20:06;1.67;;;0.63;;
31442;SDS011;18065;55.876;9.830;2023-08-01T04:22:36;1.30;;;0.50;;
31442;SDS011;18065;55.876;9.830;2023-08-01T04:25:05;2.22;;;0.63;;
31442;SDS011;18065;55.876;9.830;2023-08-01T04:27:34;0.82;;;0.52;;
31442;SDS011;18065;55.876;9.830;2023-08-01T04:30:03;1.00;;;0.60;;
31442;SDS011;18065;55.876;9.830;2023-08-01T04:32:36;1.85;;;0.47;;
31442;SDS011;18065;55.876;9.830;2023-08-01T04:35:05;2.00;;;0.80;;
31442;SDS011;18065;55.876;9.830;2023-08-01T04:37:34;0.73;;;0.50;;
31442;SDS011;18065;55.876;9.830;2023-08-01T04:40:03;0.93;;;0.68;;
31442;SDS011;18065;55.876;9.830;2023-08-01T04:42:32;0.60;;;0.43;;
31442;SDS011;18065;55.876;9.830;2023-08-01T04:45:01;1.30;;;0.70;;
31442;SDS011;18065;55.876;9.830;2023-08-01T04:47:31;0.93;;;0.60;;
31442;SDS011;18065;55.876;9.830;2023-08-01T04:50:03;2.25;;;0.60;;
31442;SDS011;18065;55.876;9.830;2023-08-01T04:52:32;0.52;;;0.40;;
31442;SDS011;18065;55.876;9.830;2023-08-01T04:55:01;0.73;;;0.50;;
31442;SDS011;18065;55.876;9.830;2023-08-01T04:57:30;1.65;;;0.50;;
31442;SDS011;18065;55.876;9.830;2023-08-01T04:59:59;0.65;;;0.50;;
31442;SDS011;18065;55.876;9.830;2023-08-01T05:02:28;0.65;;;0.50;;
31442;SDS011;18065;55.876;9.830;2023-08-01T05:04:57;1.35;;;0.57;;
31442;SDS011;18065;55.876;9.830;2023-08-01T05:07:28;0.50;;;0.50;;
31442;SDS011;18065;55.876;9.830;2023-08-01T05:09:57;1.80;;;0.70;;
31442;SDS011;18065;55.876;9.830;2023-08-01T05:12:26;0.88;;;0.60;;
31442;SDS011;18065;55.876;9.830;2023-08-01T05:14:55;0.60;;;0.60;;
31442;SDS011;18065;55.876;9.830;2023-08-01T05:17:24;0.40;;;0.35;;
31442;SDS011;18065;55.876;9.830;2023-08-01T05:19:52;2.17;;;0.80;;
31442;SDS011;18065;55.876;9.830;2023-08-01T05:22:21;0.65;;;0.47;;
31442;SDS011;18065;55.876;9.830;2023-08-01T05:24:52;1.10;;;0.60;;
31442;SDS011;18065;55.876;9.830;2023-08-01T05:27:21;0.93;;;0.55;;
31442;SDS011;18065;55.876;9.830;2023-08-01T05:29:50;1.15;;;0.50;;
31442;SDS011;18065;55.876;9.830;2023-08-01T05:32:19;0.82;;;0.40;;
31442;SDS011;18065;55.876;9.830;2023-08-01T05:34:47;2.40;;;1.00;;
31442;SDS011;18065;55.876;9.830;2023-08-01T05:37:16;1.98;;;0.70;;
31442;SDS011;18065;55.876;9.830;2023-08-01T05:39:45;3.25;;;1.15;;
31442;SDS011;18065;55.876;9.830;2023-08-01T05:42:16;1.10;;;0.80;;
31442;SDS011;18065;55.876;9.830;2023-08-01T05:44:46;2.03;;;0.80;;
31442;SDS011;18065;55.876;9.830;2023-08-01T05:47:16;1.63;;;0.90;;
31442;SDS011;18065;55.876;9.830;2023-08-01T05:49:45;4.95;;;1.02;;
31442;SDS011;18065;55.876;9.830;2023-08-01T05:52:16;2.05;;;0.80;;
31442;SDS011;18065;55.876;9.830;2023-08-01T05:54:45;1.55;;;0.68;;
31442;SDS011;18065;55.876;9.830;2023-08-01T05:57:16;3.20;;;0.70;;
31442;SDS011;18065;55.876;9.830;2023-08-01T05:59:45;2.05;;;0.75;;
31442;SDS011;18065;55.876;9.830;2023-08-01T06:02:14;6.00;;;0.80;;
31442;SDS011;18065;55.876;9.830;2023-08-01T06:04:44;3.00;;;0.80;;
31442;SDS011;18065;55.876;9.830;2023-08-01T06:07:15;7.60;;;0.80;;
31442;SDS011;18065;55.876;9.830;2023-08-01T06:09:48;0.77;;;0.50;;
31442;SDS011;18065;55.876;9.830;2023-08-01T06:12:19;2.05;;;0.93;;
31442;SDS011;18065;55.876;9.830;2023-08-01T06:14:48;3.13;;;0.70;;
31442;SDS011;18065;55.876;9.830;2023-08-01T06:17:17;1.92;;;0.70;;
31442;SDS011;18065;55.876;9.830;2023-08-01T06:19:46;0.70;;;0.50;;
31442;SDS011;18065;55.876;9.830;2023-08-01T06:22:16;3.63;;;0.80;;
31442;SDS011;18065;55.876;9.830;2023-08-01T06:24:45;0.70;;;0.63;;
31442;SDS011;18065;55.876;9.830;2023-08-01T06:27:14;1.10;;;0.70;;
31442;SDS011;18065;55.876;9.830;2023-08-01T06:29:45;2.03;;;1.00;;
31442;SDS011;18065;55.876;9.830;2023-08-01T06:32:14;1.35;;;0.70;;
31442;SDS011;18065;55.876;9.830;2023-08-01T06:34:43;0.52;;;0.50;;
31442;SDS011;18065;55.876;9.830;2023-08-01T06:37:13;1.83;;;0.60;;
31442;SDS011;18065;55.876;9.830;2023-08-01T06:39:43;2.47;;;0.63;;
31442;SDS011;18065;55.876;9.830;2023-08-01T06:42:15;1.83;;;0.70;;
31442;SDS011;18065;55.876;9.830;2023-08-01T06:44:46;1.23;;;0.70;;
31442;SDS011;18065;55.876;9.830;2023-08-01T06:47:15;2.15;;;0.70;;
31442;SDS011;18065;55.876;9.830;2023-08-01T06:49:44;1.98;;;0.70;;
31442;SDS011;18065;55.876;9.830;2023-08-01T06:52:13;1.40;;;0.63;;
31442;SDS011;18065;55.876;9.830;2023-08-01T06:54:42;2.05;;;0.70;;
31442;SDS011;18065;55.876;9.830;2023-08-01T06:57:11;0.73;;;0.73;;
31442;SDS011;18065;55.876;9.830;2023-08-01T06:59:40;0.70;;;0.57;;
31442;SDS011;18065;55.876;9.830;2023-08-01T07:02:12;2.08;;;0.57;;
31442;SDS011;18065;55.876;9.830;2023-08-01T07:04:41;1.02;;;0.68;;
31442;SDS011;18065;55.876;9.830;2023-08-01T07:07:13;0.70;;;0.52;;
31442;SDS011;18065;55.876;9.830;2023-08-01T07:09:41;2.13;;;0.68;;
31442;SDS011;18065;55.876;9.830;2023-08-01T07:12:10;2.28;;;0.75;;
31442;SDS011;18065;55.876;9.830;2023-08-01T07:14:39;1.33;;;0.80;;
31442;SDS011;18065;55.876;9.830;2023-08-01T07:17:08;2.65;;;0.77;;
31442;SDS011;18065;55.876;9.830;2023-08-01T07:19:40;0.60;;;0.43;;
31442;SDS011;18065;55.876;9.830;2023-08-01T07:22:11;0.68;;;0.60;;
31442;SDS011;18065;55.876;9.830;2023-08-01T07:24:39;0.60;;;0.60;;
31442;SDS011;18065;55.876;9.830;2023-08-01T07:27:08;3.33;;;0.75;;
31442;SDS011;18065;55.876;9.830;2023-08-01T07:29:37;1.80;;;0.65;;
31442;SDS011;18065;55.876;9.830;2023-08-01T07:32:06;1.60;;;0.77;;
31442;SDS011;18065;55.876;9.830;2023-08-01T07:34:35;1.50;;;0.90;;
31442;SDS011;18065;55.876;9.830;2023-08-01T07:37:06;1.58;;;1.00;;
31442;SDS011;18065;55.876;9.830;2023-08-01T07:39:37;1.33;;;0.70;;
31442;SDS011;18065;55.876;9.830;2023-08-01T07:42:06;1.50;;;0.90;;
31442;SDS011;18065;55.876;9.830;2023-08-01T07:44:35;1.92;;;0.80;;
31442;SDS011;18065;55.876;9.830;2023-08-01T07:47:03;1.25;;;0.60;;
31442;SDS011;18065;55.876;9.830;2023-08-01T07:49:33;0.93;;;0.80;;
31442;SDS011;18065;55.876;9.830;2023-08-01T07:52:02;1.88;;;0.70;;
31442;SDS011;18065;55.876;9.830;2023-08-01T07:54:33;1.65;;;0.57;;
31442;SDS011;18065;55.876;9.830;2023-08-01T07:57:02;1.40;;;0.60;;
31442;SDS011;18065;55.876;9.830;2023-08-01T07:59:32;1.75;;;0.77;;
31442;SDS011;18065;55.876;9.830;2023-08-01T08:02:01;1.88;;;0.70;;
31442;SDS011;18065;55.876;9.830;2023-08-01T08:04:29;1.02;;;0.73;;
31442;SDS011;18065;55.876;9.830;2023-08-01T08:06:58;2.42;;;0.73;;
31442;SDS011;18065;55.876;9.830;2023-08-01T08:09:27;0.70;;;0.60;;
31442;SDS011;18065;55.876;9.830;2023-08-01T08:11:59;2.08;;;0.80;;
31442;SDS011;18065;55.876;9.830;2023-08-01T08:14:27;1.38;;;0.85;;
31442;SDS011;18065;55.876;9.830;2023-08-01T08:16:56;1.90;;;0.82;;
31442;SDS011;18065;55.876;9.830;2023-08-01T08:19:25;1.45;;;0.77;;
31442;SDS011;18065;55.876;9.830;2023-08-01T08:21:56;1.55;;;0.65;;
31442;SDS011;18065;55.876;9.830;2023-08-01T08:24:24;3.13;;;0.80;;
31442;SDS011;18065;55.876;9.830;2023-08-01T08:26:53;3.30;;;0.90;;
31442;SDS011;18065;55.876;9.830;2023-08-01T08:29:24;1.77;;;0.90;;
31442;SDS011;18065;55.876;9.830;2023-08-01T08:31:53;1.83;;;0.77;;
31442;SDS011;18065;55.876;9.830;2023-08-01T08:34:22;2.17;;;0.90;;
31442;SDS011;18065;55.876;9.830;2023-08-01T08:36:50;3.13;;;0.95;;
31442;SDS011;18065;55.876;9.830;2023-08-01T08:39:20;1.45;;;0.85;;
31442;SDS011;18065;55.876;9.830;2023-08-01T08:41:49;1.98;;;0.70;;
31442;SDS011;18065;55.876;9.830;2023-08-01T08:44:20;1.90;;;1.10;;
31442;SDS011;18065;55.876;9.830;2023-08-01T08:46:52;1.10;;;0.85;;
31442;SDS011;18065;55.876;9.830;2023-08-01T08:49:21;2.20;;;1.27;;
31442;SDS011;18065;55.876;9.830;2023-08-01T08:51:52;1.27;;;1.05;;
31442;SDS011;18065;55.876;9.830;2023-08-01T08:54:22;3.30;;;1.25;;
31442;SDS011;18065;55.876;9.830;2023-08-01T08:56:51;1.58;;;1.08;;
31442;SDS011;18065;55.876;9.830;2023-08-01T08:59:21;2.10;;;1.20;;
31442;SDS011;18065;55.876;9.830;2023-08-01T09:01:53;2.08;;;0.98;;
31442;SDS011;18065;55.876;9.830;2023-08-01T09:04:22;2.35;;;1.35;;
31442;SDS011;18065;55.876;9.830;2023-08-01T09:06:51;1.92;;;1.20;;
31442;SDS011;18065;55.876;9.830;2023-08-01T09:09:22;2.22;;;1.55;;
31442;SDS011;18065;55.876;9.830;2023-08-01T09:11:51;3.20;;;1.50;;
31442;SDS011;18065;55.876;9.830;2023-08-01T09:14:21;1.90;;;1.17;;
31442;SDS011;18065;55.876;9.830;2023-08-01T09:16:53;2.65;;;1.50;;
31442;SDS011;18065;55.876;9.830;2023-08-01T09:19:23;3.83;;;1.25;;
31442;SDS011;18065;55.876;9.830;2023-08-01T09:21:53;3.03;;;1.50;;
31442;SDS011;18065;55.876;9.830;2023-08-01T09:24:22;1.90;;;1.15;;
31442;SDS011;18065;55.876;9.830;2023-08-01T09:26:50;2.67;;;1.60;;
31442;SDS011;18065;55.876;9.830;2023-08-01T09:29:20;2.28;;;1.40;;
31442;SDS011;18065;55.876;9.830;2023-08-01T09:31:53;3.30;;;1.38;;
31442;SDS011;18065;55.876;9.830;2023-08-01T09:34:22;2.13;;;1.20;;
31442;SDS011;18065;55.876;9.830;2023-08-01T09:36:57;1.85;;;1.20;;
31442;SDS011;18065;55.876;9.830;2023-08-01T09:39:27;1.50;;;1.17;;
31442;SDS011;18065;55.876;9.830;2023-08-01T09:41:56;2.15;;;1.23;;
31442;SDS011;18065;55.876;9.830;2023-08-01T09:44:26;1.92;;;1.60;;
31442;SDS011;18065;55.876;9.830;2023-08-01T09:46:58;2.75;;;1.30;;
31442;SDS011;18065;55.876;9.830;2023-08-01T09:49:28;2.15;;;1.15;;
31442;SDS011;18065;55.876;9.830;2023-08-01T09:51:59;2.42;;;1.13;;
31442;SDS011;18065;55.876;9.830;2023-08-01T09:54:28;1.83;;;1.00;;
31442;SDS011;18065;55.876;9.830;2023-08-01T09:56:56;2.78;;;1.30;;
31442;SDS011;18065;55.876;9.830;2023-08-01T09:59:26;3.55;;;1.30;;
31442;SDS011;18065;55.876;9.830;2023-08-01T10:01:55;2.30;;;1.10;;
31442;SDS011;18065;55.876;9.830;2023-08-01T10:04:29;2.00;;;1.00;;
31442;SDS011;18065;55.876;9.830;2023-08-01T10:06:59;1.90;;;0.98;;
31442;SDS011;18065;55.876;9.830;2023-08-01T10:12:01;1.48;;;0.98;;
31442;SDS011;18065;55.876;9.830;2023-08-01T10:14:32;1.10;;;1.00;;
31442;SDS011;18065;55.876;9.830;2023-08-01T10:17:04;2.55;;;1.08;;
31442;SDS011;18065;55.876;9.830;2023-08-01T10:19:33;2.40;;;1.00;;
31442;SDS011;18065;55.876;9.830;2023-08-01T10:22:03;1.83;;;1.05;;
31442;SDS011;18065;55.876;9.830;2023-08-01T10:24:34;2.42;;;0.93;;
31442;SDS011;18065;55.876;9.830;2023-08-01T10:27:13;1.65;;;0.85;;
31442;SDS011;18065;55.876;9.830;2023-08-01T10:29:43;1.83;;;1.10;;
31442;SDS011;18065;55.876;9.830;2023-08-01T10:32:15;1.83;;;0.90;;
31442;SDS011;18065;55.876;9.830;2023-08-01T10:34:50;1.08;;;0.80;;
31442;SDS011;18065;55.876;9.830;2023-08-01T10:37:19;1.67;;;1.10;;
31442;SDS011;18065;55.876;9.830;2023-08-01T10:39:55;1.77;;;0.85;;
31442;SDS011;18065;55.876;9.830;2023-08-01T10:42:25;1.20;;;0.98;;
31442;SDS011;18065;55.876;9.830;2023-08-01T10:44:54;1.55;;;0.90;;
31442;SDS011;18065;55.876;9.830;2023-08-01T10:47:28;1.75;;;0.90;;
31442;SDS011;18065;55.876;9.830;2023-08-01T10:49:57;1.65;;;0.90;;
31442;SDS011;18065;55.876;9.830;2023-08-01T10:52:26;0.95;;;0.88;;
31442;SDS011;18065;55.876;9.830;2023-08-01T10:54:58;1.67;;;1.10;;
31442;SDS011;18065;55.876;9.830;2023-08-01T10:57:29;2.72;;;1.10;;
31442;SDS011;18065;55.876;9.830;2023-08-01T10:59:58;1.60;;;0.88;;
31442;SDS011;18065;55.876;9.830;2023-08-01T11:02:30;1.63;;;1.02;;
31442;SDS011;18065;55.876;9.830;2023-08-01T11:04:59;1.00;;;0.85;;
31442;SDS011;18065;55.876;9.830;2023-08-01T11:07:30;2.30;;;1.10;;
31442;SDS011;18065;55.876;9.830;2023-08-01T11:10:05;1.02;;;0.80;;
31442;SDS011;18065;55.876;9.830;2023-08-01T11:12:36;1.40;;;0.82;;
31442;SDS011;18065;55.876;9.830;2023-08-01T11:15:06;1.55;;;0.90;;
31442;SDS011;18065;55.876;9.830;2023-08-01T11:17:39;1.63;;;0.98;;
31442;SDS011;18065;55.876;9.830;2023-08-01T11:20:11;1.88;;;1.10;;
31442;SDS011;18065;55.876;9.830;2023-08-01T11:22:48;2.25;;;1.00;;
31442;SDS011;18065;55.876;9.830;2023-08-01T11:25:19;1.20;;;0.90;;
31442;SDS011;18065;55.876;9.830;2023-08-01T11:28:01;1.48;;;1.10;;
31442;SDS011;18065;55.876;9.830;2023-08-01T11:30:32;1.50;;;1.40;;
31442;SDS011;18065;55.876;9.830;2023-08-01T11:33:12;2.75;;;1.15;;
31442;SDS011;18065;55.876;9.830;2023-08-01T11:35:42;1.48;;;1.33;;
31442;SDS011;18065;55.876;9.830;2023-08-01T11:38:11;2.67;;;1.20;;
31442;SDS011;18065;55.876;9.830;2023-08-01T11:40:40;1.90;;;1.17;;
31442;SDS011;18065;55.876;9.830;2023-08-01T11:43:09;1.60;;;1.40;;
31442;SDS011;18065;55.876;9.830;2023-08-01T11:45:47;2.25;;;1.05;;
31442;SDS011;18065;55.876;9.830;2023-08-01T11:48:19;3.25;;;1.15;;
31442;SDS011;18065;55.876;9.830;2023-08-01T11:50:49;7.07;;;1.50;;
31442;SDS011;18065;55.876;9.830;2023-08-01T11:53:18;2.08;;;1.08;;
31442;SDS011;18065;55.876;9.830;2023-08-01T11:55:47;5.05;;;1.27;;
31442;SDS011;18065;55.876;9.830;2023-08-01T11:58:27;2.22;;;1.58;;
31442;SDS011;18065;55.876;9.830;2023-08-01T12:01:01;1.77;;;1.08;;
31442;SDS011;18065;55.876;9.830;2023-08-01T12:03:41;1.40;;;0.98;;
31442;SDS011;18065;55.876;9.830;2023-08-01T12:06:10;2.00;;;0.98;;
31442;SDS011;18065;55.876;9.830;2023-08-01T12:08:39;2.25;;;0.93;;
31442;SDS011;18065;55.876;9.830;2023-08-01T12:11:17;2.15;;;1.08;;
31442;SDS011;18065;55.876;9.830;2023-08-01T12:13:46;2.70;;;1.10;;
31442;SDS011;18065;55.876;9.830;2023-08-01T12:16:15;1.17;;;1.05;;
31442;SDS011;18065;55.876;9.830;2023-08-01T12:18:48;5.50;;;1.05;;
31442;SDS011;18065;55.876;9.830;2023-08-01T12:21:17;1.75;;;1.00;;
31442;SDS011;18065;55.876;9.830;2023-08-01T12:23:45;2.47;;;1.00;;
31442;SDS011;18065;55.876;9.830;2023-08-01T12:26:14;2.38;;;1.30;;
31442;SDS011;18065;55.876;9.830;2023-08-01T12:28:43;1.90;;;1.17;;
31442;SDS011;18065;55.876;9.830;2023-08-01T12:31:15;2.35;;;1.27;;
31442;SDS011;18065;55.876;9.830;2023-08-01T12:33:47;2.65;;;1.13;;
31442;SDS011;18065;55.876;9.830;2023-08-01T12:36:17;1.80;;;1.08;;
31442;SDS011;18065;55.876;9.830;2023-08-01T12:38:46;2.30;;;1.17;;
31442;SDS011;18065;55.876;9.830;2023-08-01T12:41:15;1.65;;;1.10;;
31442;SDS011;18065;55.876;9.830;2023-08-01T12:43:43;3.10;;;1.00;;
31442;SDS011;18065;55.876;9.830;2023-08-01T12:46:12;2.55;;;1.30;;
31442;SDS011;18065;55.876;9.830;2023-08-01T12:48:41;3.47;;;1.30;;
31442;SDS011;18065;55.876;9.830;2023-08-01T12:51:12;1.75;;;1.00;;
31442;SDS011;18065;55.876;9.830;2023-08-01T12:53:41;3.70;;;1.15;;
31442;SDS011;18065;55.876;9.830;2023-08-01T12:56:10;3.78;;;1.20;;
31442;SDS011;18065;55.876;9.830;2023-08-01T12:58:39;3.15;;;1.30;;
31442;SDS011;18065;55.876;9.830;2023-08-01T13:01:08;2.45;;;1.25;;
31442;SDS011;18065;55.876;9.830;2023-08-01T13:03:36;1.75;;;1.10;;
31442;SDS011;18065;55.876;9.830;2023-08-01T13:06:05;1.48;;;1.00;;
31442;SDS011;18065;55.876;9.830;2023-08-01T13:08:36;2.40;;;1.10;;
31442;SDS011;18065;55.876;9.830;2023-08-01T13:11:09;2.42;;;1.10;;
31442;SDS011;18065;55.876;9.830;2023-08-01T13:13:40;2.35;;;1.17;;
31442;SDS011;18065;55.876;9.830;2023-08-01T13:16:09;5.30;;;1.13;;
31442;SDS011;18065;55.876;9.830;2023-08-01T13:18:37;3.65;;;1.30;;
31442;SDS011;18065;55.876;9.830;2023-08-01T13:21:08;2.80;;;1.40;;
31442;SDS011;18065;55.876;9.830;2023-08-01T13:23:40;1.35;;;0.80;;
31442;SDS011;18065;55.876;9.830;2023-08-01T13:26:09;3.42;;;1.10;;
31442;SDS011;18065;55.876;9.830;2023-08-01T13:28:38;2.72;;;1.13;;
31442;SDS011;18065;55.876;9.830;2023-08-01T13:31:06;2.67;;;1.30;;
31442;SDS011;18065;55.876;9.830;2023-08-01T13:33:35;3.83;;;1.73;;
31442;SDS011;18065;55.876;9.830;2023-08-01T13:36:04;1.90;;;1.10;;
31442;SDS011;18065;55.876;9.830;2023-08-01T13:38:33;1.83;;;1.00;;
31442;SDS011;18065;55.876;9.830;2023-08-01T13:41:04;4.57;;;1.13;;
31442;SDS011;18065;55.876;9.830;2023-08-01T13:43:33;2.78;;;1.20;;
31442;SDS011;18065;55.876;9.830;2023-08-01T13:46:07;2.10;;;1.30;;
31442;SDS011;18065;55.876;9.830;2023-08-01T13:48:40;3.35;;;1.80;;
31442;SDS011;18065;55.876;9.830;2023-08-01T13:51:09;7.25;;;2.50;;
31442;SDS011;18065;55.876;9.830;2023-08-01T13:53:37;7.60;;;3.53;;
31442;SDS011;18065;55.876;9.830;2023-08-01T13:56:10;7.50;;;3.20;;
31442;SDS011;18065;55.876;9.830;2023-08-01T13:58:39;8.07;;;3.35;;
31442;SDS011;18065;55.876;9.830;2023-08-01T14:01:08;5.47;;;3.25;;
31442;SDS011;18065;55.876;9.830;2023-08-01T14:03:38;8.32;;;3.05;;
31442;SDS011;18065;55.876;9.830;2023-08-01T14:06:07;5.05;;;2.50;;
31442;SDS011;18065;55.876;9.830;2023-08-01T14:08:37;4.72;;;1.90;;
31442;SDS011;18065;55.876;9.830;2023-08-01T14:11:07;5.22;;;2.38;;
31442;SDS011;18065;55.876;9.830;2023-08-01T14:13:38;4.25;;;2.33;;
31442;SDS011;18065;55.876;9.830;2023-08-01T14:16:07;6.07;;;2.22;;
31442;SDS011;18065;55.876;9.830;2023-08-01T14:18:35;3.65;;;1.70;;
31442;SDS011;18065;55.876;9.830;2023-08-01T14:21:04;4.15;;;1.73;;
31442;SDS011;18065;55.876;9.830;2023-08-01T14:23:33;5.38;;;1.83;;
31442;SDS011;18065;55.876;9.830;2023-08-01T14:26:03;4.68;;;1.80;;
31442;SDS011;18065;55.876;9.830;2023-08-01T14:28:34;3.13;;;1.60;;
31442;SDS011;18065;55.876;9.830;2023-08-01T14:31:03;1.95;;;1.20;;
31442;SDS011;18065;55.876;9.830;2023-08-01T14:33:32;2.78;;;1.60;;
31442;SDS011;18065;55.876;9.830;2023-08-01T14:36:01;3.70;;;1.40;;
31442;SDS011;18065;55.876;9.830;2023-08-01T14:38:35;2.72;;;1.60;;
31442;SDS011;18065;55.876;9.830;2023-08-01T14:41:03;2.22;;;1.27;;
31442;SDS011;18065;55.876;9.830;2023-08-01T14:43:35;2.55;;;1.38;;
31442;SDS011;18065;55.876;9.830;2023-08-01T14:46:04;3.22;;;1.27;;
31442;SDS011;18065;55.876;9.830;2023-08-01T14:48:32;3.42;;;1.38;;
31442;SDS011;18065;55.876;9.830;2023-08-01T14:51:04;2.55;;;1.23;;
31442;SDS011;18065;55.876;9.830;2023-08-01T14:53:33;2.83;;;1.58;;
31442;SDS011;18065;55.876;9.830;2023-08-01T14:56:02;2.15;;;1.10;;
31442;SDS011;18065;55.876;9.830;2023-08-01T14:58:36;2.90;;;1.55;;
31442;SDS011;18065;55.876;9.830;2023-08-01T15:01:11;1.88;;;1.35;;
31442;SDS011;18065;55.876;9.830;2023-08-01T15:03:40;4.10;;;1.67;;
31442;SDS011;18065;55.876;9.830;2023-08-01T15:06:09;2.65;;;1.30;;